Time;durP1;ratioP1;P1;durP2;ratioP2;P2;SDS_P1;SDS_P2;PMS_P1;PMS_P2;Temp;Humidity;BMP_temperature;BMP_pressure;BME280_temperature;BME280_humidity;BME280_pressure;Samples;Min_cycle;Max_cycle;Signal;HPM_P1;HPM_P2
2022/04/03 00:22:53;;;;;;;12.83;11.10;;;0.60;98.10;;;;;;4845245;29;20245;-89
2022/04/03 00:47:27;;;;;;;10.83;9.70;;;0.30;97.60;;;;;;4968029;28;20299;-89
2022/04/03 00:52:43;;;;;;;13.23;10.43;;;0.30;97.90;;;;;;4948455;28;20205;-89
2022/04/03 00:55:31;;;;;;;12.23;10.50;;;0.40;97.90;;;;;;4965320;28;20270;-89
2022/04/03 01:01:58;;;;;;;;;;;;;;;;;;;;;
2022/04/03 01:10:58;;;;;;;12.27;10.57;;;0.40;98.20;;;;;;4955295;28;20637;-88
2022/04/03 01:19:42;;;;;;;14.50;12.17;;;0.50;98.10;;;;;;5001548;28;20222;-89
2022/04/03 01:22:11;;;;;;;13.73;11.97;;;0.50;98.10;;;;;;4996138;28;20231;-90
2022/04/03 01:31:43;;;;;;;12.90;11.43;;;0.50;97.70;;;;;;4920890;29;20296;-91
2022/04/03 01:43:28;;;;;;;13.37;11.97;;;0.50;97.90;;;;;;4941117;29;20310;-89
2022/04/03 01:49:04;;;;;;;13.97;12.47;;;0.60;98.00;;;;;;4984897;28;20219;-89
2022/04/03 02:31:59;;;;;;;20.20;14.87;;;0.70;97.90;;;;;;4953166;29;20287;-89
2022/04/03 02:40:57;;;;;;;17.50;15.23;;;0.90;97.40;;;;;;4970756;28;20235;-89
2022/04/03 02:43:46;;;;;;;17.17;14.07;;;0.90;97.30;;;;;;4986722;28;20232;-89
2022/04/03 02:46:36;;;;;;;18.57;14.40;;;0.90;97.20;;;;;;5008382;28;20296;-89
2022/04/03 02:49:03;;;;;;;17.00;14.30;;;0.80;97.30;;;;;;5005212;28;20243;-90
2022/04/03 02:51:35;;;;;;;18.00;14.60;;;0.80;97.70;;;;;;5013410;28;20233;-89
2022/04/03 02:54:18;;;;;;;17.67;14.43;;;0.80;97.40;;;;;;5019211;28;20202;-89
2022/04/03 02:57:28;;;;;;;17.00;14.67;;;0.70;97.00;;;;;;5026380;28;20233;-89
2022/04/03 03:05:44;;;;;;;16.97;14.77;;;0.70;97.60;;;;;;5007176;28;20684;-89
2022/04/03 03:08:13;;;;;;;16.47;14.30;;;0.70;97.50;;;;;;5018160;28;20198;-91
2022/04/03 03:10:40;;;;;;;18.97;14.23;;;0.80;97.30;;;;;;5022128;28;20256;-89
2022/04/03 03:13:08;;;;;;;16.80;14.47;;;0.80;97.10;;;;;;5025456;28;20208;-88
2022/04/03 03:15:36;;;;;;;18.20;15.17;;;0.90;97.30;;;;;;5021078;28;20250;-90
2022/04/03 03:47:05;;;;;;;15.77;12.53;;;0.80;96.20;;;;;;4816944;29;20303;-89
2022/04/03 03:52:16;;;;;;;15.87;12.90;;;0.70;96.80;;;;;;4996780;28;20246;-89
2022/04/03 03:57:28;;;;;;;16.30;13.10;;;0.80;96.80;;;;;;4992048;28;20207;-89
2022/04/03 03:59:55;;;;;;;16.00;12.93;;;0.80;96.60;;;;;;5002546;28;20207;-89
2022/04/03 04:02:23;;;;;;;14.90;12.83;;;0.90;96.60;;;;;;5002983;28;20232;-89
2022/04/03 04:07:53;;;;;;;14.70;12.53;;;0.80;96.70;;;;;;5005920;28;20224;-89
2022/04/03 04:13:19;;;;;;;14.10;11.73;;;0.80;96.30;;;;;;5002432;28;20241;-90
2022/04/03 04:15:46;;;;;;;16.40;11.93;;;0.80;96.00;;;;;;5006741;28;20633;-88
2022/04/03 04:24:16;;;;;;;13.53;11.73;;;0.90;96.30;;;;;;5010110;28;20224;-89
2022/04/03 04:26:55;;;;;;;16.40;12.27;;;0.90;96.30;;;;;;4991496;28;20229;-89
2022/04/03 04:29:23;;;;;;;17.10;12.27;;;0.80;96.30;;;;;;4989796;28;20306;-89
2022/04/03 04:31:51;;;;;;;15.50;12.77;;;0.80;96.30;;;;;;5012761;28;20220;-88
2022/04/03 04:34:20;;;;;;;15.23;12.43;;;0.80;96.40;;;;;;4992146;28;20203;-89
2022/04/03 04:43:05;;;;;;;15.13;12.50;;;1.00;96.40;;;;;;4985230;28;20235;-89
2022/04/03 04:59:03;;;;;;;16.60;12.83;;;1.00;96.10;;;;;;4947835;29;20227;-89
2022/04/03 05:01:40;;;;;;;16.50;12.63;;;1.00;95.70;;;;;;4929755;29;20255;-89
2022/04/03 05:04:13;;;;;;;14.00;12.43;;;0.90;95.80;;;;;;4950852;29;20206;-88
2022/04/03 05:06:41;;;;;;;14.90;13.10;;;0.80;95.40;;;;;;4940080;29;20235;-89
2022/04/03 05:09:13;;;;;;;16.43;13.13;;;0.80;95.70;;;;;;4942919;29;20264;-89
2022/04/03 05:11:50;;;;;;;18.43;13.97;;;0.90;96.20;;;;;;4946251;29;20251;-90
2022/04/03 05:14:39;;;;;;;15.93;14.00;;;0.90;95.90;;;;;;4943625;29;20221;-89
2022/04/03 05:17:16;;;;;;;18.00;13.73;;;0.90;95.60;;;;;;4970615;28;20290;-89
2022/04/03 05:19:44;;;;;;;17.00;13.90;;;0.90;96.10;;;;;;4991743;28;20203;-89
2022/04/03 05:22:23;;;;;;;15.27;13.43;;;1.00;95.90;;;;;;4990804;28;20294;-88
2022/04/03 05:24:55;;;;;;;16.23;13.30;;;1.00;95.90;;;;;;4989729;28;20464;-89
2022/04/03 05:27:40;;;;;;;17.83;14.50;;;1.10;95.60;;;;;;5004200;28;20218;-90
2022/04/03 05:32:50;;;;;;;16.43;13.93;;;1.00;95.70;;;;;;5021455;28;20211;-89
2022/04/03 05:35:18;;;;;;;16.80;14.23;;;1.10;95.70;;;;;;5006701;28;20213;-89
2022/04/03 05:38:11;;;;;;;17.80;14.97;;;1.10;95.70;;;;;;4991767;28;20210;-89
2022/04/03 05:46:07;;;;;;;16.67;14.33;;;1.00;95.40;;;;;;5024771;28;20257;-89
2022/04/03 05:48:36;;;;;;;18.67;14.67;;;1.10;95.30;;;;;;5029568;28;20210;-89
2022/04/03 05:54:12;;;;;;;18.57;14.07;;;1.10;95.40;;;;;;4972965;28;20200;-92
2022/04/03 06:08:55;;;;;;;16.70;13.63;;;1.10;95.30;;;;;;4996840;28;20199;-91
2022/04/03 06:11:28;;;;;;;17.80;13.77;;;1.20;94.80;;;;;;5007616;28;20326;-91
2022/04/03 06:19:45;;;;;;;16.80;12.67;;;1.30;95.30;;;;;;5008564;28;20273;-93
2022/04/03 06:25:18;;;;;;;16.00;12.43;;;1.40;94.30;;;;;;5007287;28;20226;-91
2022/04/03 06:27:45;;;;;;;14.80;12.77;;;1.30;94.30;;;;;;5028784;28;20245;-92
2022/04/03 06:33:00;;;;;;;17.63;13.27;;;1.30;94.30;;;;;;5028449;28;20262;-90
2022/04/03 06:35:27;;;;;;;15.93;13.87;;;1.40;94.30;;;;;;5025783;28;20295;-89
2022/04/03 06:37:54;;;;;;;17.43;12.97;;;1.50;94.30;;;;;;5009985;28;20207;-90
2022/04/03 06:40:23;;;;;;;14.87;12.30;;;1.50;93.90;;;;;;5006806;28;20219;-91
2022/04/03 06:42:50;;;;;;;14.40;12.10;;;1.70;93.80;;;;;;4997638;28;20676;-90
2022/04/03 06:48:02;;;;;;;12.47;9.97;;;1.90;92.80;;;;;;4982973;28;20199;-90
2022/04/03 06:50:30;;;;;;;12.60;9.60;;;2.00;91.80;;;;;;5009862;28;20227;-91
2022/04/03 06:52:58;;;;;;;12.67;10.17;;;1.90;91.00;;;;;;5024040;28;20278;-90
2022/04/03 06:55:25;;;;;;;11.70;9.97;;;2.00;91.80;;;;;;5026119;28;20576;-90
2022/04/03 06:57:52;;;;;;;13.43;10.27;;;2.10;91.80;;;;;;5009977;28;20271;-90
2022/04/03 07:00:20;;;;;;;12.83;9.63;;;2.20;91.40;;;;;;5009825;28;20196;-89
2022/04/03 07:02:48;;;;;;;12.20;10.50;;;2.20;90.90;;;;;;5024711;28;20783;-89
2022/04/03 07:08:08;;;;;;;12.00;9.67;;;2.20;91.30;;;;;;5025015;28;20226;-89
2022/04/03 07:10:35;;;;;;;11.93;9.57;;;2.10;91.00;;;;;;5006337;28;20290;-89
2022/04/03 07:13:02;;;;;;;12.97;10.27;;;2.00;91.10;;;;;;5013790;28;20226;-89
2022/04/03 07:18:19;;;;;;;10.77;9.67;;;2.00;91.40;;;;;;5020327;28;20210;-90
2022/04/03 07:20:49;;;;;;;13.43;10.70;;;2.00;92.20;;;;;;5015142;28;20315;-91
2022/04/03 07:23:16;;;;;;;12.50;10.97;;;2.00;92.60;;;;;;5021830;28;20223;-91
2022/04/03 07:25:43;;;;;;;12.80;10.70;;;2.00;92.40;;;;;;5017925;28;20309;-91
2022/04/03 07:28:10;;;;;;;12.17;10.87;;;2.00;92.30;;;;;;5023826;28;20224;-90
2022/04/03 07:30:38;;;;;;;15.00;10.73;;;2.10;92.50;;;;;;4999753;28;20691;-90
2022/04/03 07:33:06;;;;;;;12.87;10.97;;;2.20;92.40;;;;;;4997467;28;20206;-91
2022/04/03 07:35:34;;;;;;;12.53;11.00;;;2.20;92.00;;;;;;5009987;28;20243;-91
2022/04/03 07:38:06;;;;;;;13.40;10.93;;;2.20;91.80;;;;;;5003588;28;20226;-90
2022/04/03 07:40:34;;;;;;;13.83;10.60;;;2.00;91.80;;;;;;5006521;28;20232;-91
2022/04/03 07:43:07;;;;;;;13.23;10.67;;;1.90;91.50;;;;;;5006867;28;20228;-92
2022/04/03 07:45:51;;;;;;;12.50;9.97;;;1.90;91.90;;;;;;4987310;28;20264;-91
2022/04/03 07:48:38;;;;;;;11.37;8.63;;;2.00;91.70;;;;;;5006872;28;20226;-91
2022/04/03 07:51:08;;;;;;;10.87;8.20;;;2.10;90.30;;;;;;5010876;28;20259;-92
2022/04/03 07:56:25;;;;;;;9.70;7.97;;;2.70;90.00;;;;;;4988387;28;20219;-90
2022/04/03 07:58:54;;;;;;;8.87;7.90;;;3.10;83.90;;;;;;4983874;28;20203;-90
2022/04/03 08:01:22;;;;;;;11.53;7.87;;;3.20;86.00;;;;;;4985671;28;20307;-91
2022/04/03 08:06:24;;;;;;;8.73;7.53;;;3.90;81.60;;;;;;5244310;22;20260;-88
2022/04/03 08:11:36;;;;;;;9.43;7.90;;;4.10;77.70;;;;;;5054396;28;20249;-91
2022/04/03 08:14:27;;;;;;;8.57;7.70;;;3.90;76.60;;;;;;5022144;28;20671;-90
2022/04/03 08:20:21;;;;;;;10.40;9.33;;;3.70;79.80;;;;;;5039690;28;20210;-91
2022/04/03 08:28:15;;;;;;;13.23;9.93;;;4.10;77.80;;;;;;5026433;28;20255;-91
2022/04/03 08:30:46;;;;;;;11.23;10.03;;;4.10;77.90;;;;;;5014310;28;20219;-89
2022/04/03 08:33:14;;;;;;;12.63;10.03;;;3.70;78.10;;;;;;5016433;28;20200;-91
2022/04/03 08:35:41;;;;;;;15.67;10.30;;;3.30;81.00;;;;;;5020616;28;20233;-89
2022/04/03 08:38:09;;;;;;;10.80;9.70;;;3.20;81.80;;;;;;5019011;28;20204;-90
2022/04/03 08:40:38;;;;;;;12.20;10.50;;;2.90;84.70;;;;;;5024350;28;20262;-90
2022/04/03 08:43:06;;;;;;;10.90;9.37;;;3.10;85.40;;;;;;5010306;28;20954;-87
2022/04/03 08:45:34;;;;;;;11.77;9.23;;;3.50;84.30;;;;;;5013560;28;20242;-88
2022/04/03 08:48:02;;;;;;;10.17;8.80;;;3.80;82.40;;;;;;5010147;28;20210;-90
2022/04/03 08:50:31;;;;;;;10.40;8.93;;;4.90;76.60;;;;;;5009123;28;20253;-91
2022/04/03 09:12:58;;;;;;;9.20;8.13;;;6.30;49.70;;;;;;4922617;28;20234;-93
2022/04/03 09:20:51;;;;;;;13.60;12.30;;;6.10;50.40;;;;;;4981364;28;20226;-91
2022/04/03 09:23:20;;;;;;;10.53;9.53;;;5.90;52.80;;;;;;5019417;28;20219;-89
2022/04/03 09:26:18;;;;;;;10.23;9.23;;;5.60;50.00;;;;;;5013991;28;20230;-88
2022/04/03 09:28:47;;;;;;;10.93;8.47;;;5.40;57.10;;;;;;5021420;28;20218;-89
2022/04/03 09:31:25;;;;;;;8.67;7.77;;;5.20;55.70;;;;;;5023686;28;20223;-87
2022/04/03 09:34:00;;;;;;;8.33;7.43;;;5.40;57.00;;;;;;5067470;28;20202;-87
2022/04/03 09:36:30;;;;;;;8.43;7.53;;;6.20;53.80;;;;;;5027106;28;20227;-86
2022/04/03 09:39:10;;;;;;;8.47;7.07;;;6.50;50.00;;;;;;5022314;28;20614;-86
2022/04/03 09:42:01;;;;;;;7.87;7.00;;;6.40;45.40;;;;;;5016585;28;20215;-87
2022/04/03 09:44:32;;;;;;;8.77;7.50;;;6.10;52.10;;;;;;5021927;28;20229;-86
2022/04/03 09:47:19;;;;;;;8.70;7.03;;;6.00;53.00;;;;;;5022228;28;20237;-87
2022/04/03 09:49:51;;;;;;;7.90;7.13;;;5.80;54.00;;;;;;5025391;28;20200;-88
2022/04/03 09:52:33;;;;;;;8.80;6.63;;;6.10;56.40;;;;;;5021519;28;20577;-87
2022/04/03 09:55:01;;;;;;;7.30;6.60;;;7.30;46.10;;;;;;5019600;28;21048;-87
2022/04/03 09:57:38;;;;;;;7.67;6.33;;;7.40;43.20;;;;;;5038908;28;20230;-86
2022/04/03 10:03:19;;;;;;;6.60;5.93;;;7.60;34.80;;;;;;5033143;28;20219;-87
2022/04/03 10:05:46;;;;;;;7.50;5.90;;;7.10;38.40;;;;;;5034362;28;20598;-86
2022/04/03 10:08:15;;;;;;;9.27;6.30;;;7.10;41.30;;;;;;5014349;28;20216;-87
2022/04/03 10:11:02;;;;;;;6.70;5.80;;;6.50;40.00;;;;;;5009071;28;20236;-86
2022/04/03 10:13:32;;;;;;;7.77;5.97;;;6.30;45.30;;;;;;5020924;28;20226;-87
2022/04/03 10:16:00;;;;;;;6.67;6.03;;;5.70;45.40;;;;;;5023006;28;20223;-87
2022/04/03 10:18:27;;;;;;;8.10;5.90;;;5.70;52.70;;;;;;5037216;28;20217;-86
2022/04/03 10:20:54;;;;;;;8.37;7.00;;;5.80;52.20;;;;;;5032518;28;20352;-86
2022/04/03 10:23:24;;;;;;;8.93;6.33;;;6.10;55.70;;;;;;5040878;28;20227;-86
2022/04/03 10:25:55;;;;;;;6.70;6.00;;;6.40;51.30;;;;;;5038486;28;20233;-86
2022/04/03 10:28:25;;;;;;;7.50;5.60;;;6.20;52.10;;;;;;5036735;28;20257;-87
2022/04/03 10:31:07;;;;;;;6.20;5.60;;;6.30;46.10;;;;;;5033755;28;20241;-86
2022/04/03 10:33:39;;;;;;;6.27;5.67;;;6.50;45.70;;;;;;5035142;28;20197;-86
2022/04/03 10:36:08;;;;;;;6.37;5.77;;;6.20;45.30;;;;;;5017026;28;20238;-86
2022/04/03 10:38:37;;;;;;;7.73;6.67;;;5.70;46.20;;;;;;5019465;28;20278;-86
2022/04/03 10:41:05;;;;;;;5.97;5.20;;;5.90;49.60;;;;;;5023231;28;20257;-86
2022/04/03 10:47:12;;;;;;;6.90;4.95;;;7.90;40.10;;;;;;5019773;28;20225;-89
2022/04/03 10:50:17;;;;;;;7.40;5.57;;;7.90;34.60;;;;;;5039803;28;20233;-87
2022/04/03 10:53:35;;;;;;;;;;;;;;;;;;;;;
2022/04/03 11:09:59;;;;;;;6.40;5.63;;;7.80;35.50;;;;;;4955007;28;20201;-92
2022/04/03 11:18:28;;;;;;;6.63;4.70;;;6.70;35.40;;;;;;4971364;28;20255;-92
2022/04/03 11:21:11;;;;;;;5.90;5.20;;;6.30;39.00;;;;;;5021048;28;20222;-91
2022/04/03 11:26:44;;;;;;;5.67;5.00;;;6.30;41.00;;;;;;5027024;28;20293;-88
2022/04/03 11:50:11;;;;;;;7.37;5.30;;;5.30;44.50;;;;;;5034448;28;20194;-90
2022/04/03 11:52:38;;;;;;;6.10;5.50;;;4.90;50.20;;;;;;5062491;28;20230;-88
2022/04/03 11:55:10;;;;;;;5.93;5.07;;;4.90;49.10;;;;;;5060141;28;20190;-87
2022/04/03 11:57:39;;;;;;;6.90;5.97;;;4.40;50.70;;;;;;5053890;28;20210;-87
2022/04/03 12:00:09;;;;;;;7.50;5.77;;;4.50;54.90;;;;;;5058108;28;20220;-87
2022/04/03 12:02:40;;;;;;;5.97;5.27;;;4.70;55.40;;;;;;5042682;28;20597;-87
2022/04/03 12:05:09;;;;;;;5.63;4.83;;;4.90;51.80;;;;;;5042845;28;20218;-89
2022/04/03 12:07:37;;;;;;;6.60;5.00;;;5.00;50.60;;;;;;5040875;28;20224;-89
2022/04/03 12:10:05;;;;;;;7.27;5.30;;;5.50;47.10;;;;;;5042700;28;20286;-89
2022/04/03 12:27:56;;;;;;;4.10;2.80;;;7.40;31.90;;;;;;5047167;28;20222;-89
2022/04/03 12:36:02;;;;;;;4.83;3.30;;;7.10;29.10;;;;;;5004266;28;20226;-92
2022/04/03 12:41:17;;;;;;;3.67;3.20;;;6.70;33.30;;;;;;5047280;28;20233;-90
2022/04/03 12:43:47;;;;;;;4.20;3.40;;;6.70;31.80;;;;;;5046676;28;20217;-91
2022/04/03 12:46:15;;;;;;;5.50;3.73;;;6.40;33.10;;;;;;5041566;28;20302;-90
2022/04/03 12:51:23;;;;;;;3.90;3.10;;;6.90;32.60;;;;;;5021603;28;20784;-91
2022/04/03 12:53:52;;;;;;;5.30;3.17;;;7.00;32.90;;;;;;5044578;28;20308;-89
2022/04/03 12:58:24;;;;;;;4.57;3.00;;;6.80;31.20;;;;;;5037314;28;20243;-90
2022/04/03 12:59:19;;;;;;;5.07;2.80;;;6.60;34.60;;;;;;5043136;28;20194;-89
2022/04/03 13:01:57;;;;;;;6.50;3.03;;;6.00;34.90;;;;;;5039730;28;20250;-91
2022/04/03 13:04:31;;;;;;;4.20;3.13;;;5.90;30.60;;;;;;5041469;28;20257;-91
2022/04/03 13:06:59;;;;;;;5.20;3.20;;;5.60;34.10;;;;;;5039272;28;20286;-87
2022/04/03 13:12:09;;;;;;;3.90;3.27;;;5.70;34.10;;;;;;5038330;28;20209;-91
2022/04/03 13:14:37;;;;;;;8.13;3.47;;;5.70;33.80;;;;;;5033958;28;20237;-89
2022/04/03 13:17:06;;;;;;;3.37;3.07;;;5.70;32.00;;;;;;5039595;28;20222;-87
2022/04/03 13:19:35;;;;;;;5.27;3.20;;;5.30;32.40;;;;;;5046356;28;20205;-86
2022/04/03 13:22:06;;;;;;;3.77;2.87;;;5.30;35.20;;;;;;5042817;28;20218;-87
2022/04/03 13:24:35;;;;;;;4.03;3.30;;;5.40;33.60;;;;;;5040380;28;20214;-86
2022/04/03 13:27:04;;;;;;;5.83;3.70;;;5.40;35.10;;;;;;5039093;28;20226;-89
2022/04/03 13:29:34;;;;;;;3.57;3.27;;;5.20;34.50;;;;;;5035087;28;20218;-85
2022/04/03 13:32:02;;;;;;;3.67;3.37;;;5.00;34.90;;;;;;5032770;28;20218;-90
2022/04/03 13:34:30;;;;;;;3.83;3.40;;;5.00;34.50;;;;;;5032524;28;20217;-89
2022/04/03 13:36:57;;;;;;;4.40;3.53;;;4.90;35.40;;;;;;5033596;28;20257;-89
2022/04/03 13:39:25;;;;;;;3.77;3.47;;;4.90;35.30;;;;;;5038762;28;20206;-89
2022/04/03 13:44:36;;;;;;;4.10;3.40;;;5.20;37.10;;;;;;5041135;28;20232;-88
2022/04/03 13:47:13;;;;;;;3.97;3.47;;;5.30;34.10;;;;;;5048647;28;20307;-91
2022/04/03 13:49:41;;;;;;;4.30;3.60;;;5.50;34.50;;;;;;5038319;28;20208;-93
2022/04/03 13:53:01;;;;;;;3.43;3.00;;;5.50;34.50;;;;;;5050435;28;20204;-92
2022/04/03 14:03:53;;;;;;;4.57;3.60;;;5.80;33.20;;;;;;5026788;28;20253;-92
2022/04/03 14:06:40;;;;;;;4.70;3.13;;;5.70;32.80;;;;;;5035644;28;20265;-90
2022/04/03 14:09:14;;;;;;;4.23;3.50;;;5.70;32.90;;;;;;5031450;28;20626;-92
2022/04/03 14:11:41;;;;;;;4.07;3.23;;;5.80;34.70;;;;;;5034097;28;20279;-90
2022/04/03 14:14:10;;;;;;;5.20;3.60;;;5.70;32.10;;;;;;5033202;28;20244;-91
2022/04/03 14:16:38;;;;;;;4.00;3.00;;;5.80;32.90;;;;;;5038338;28;20218;-92
2022/04/03 14:19:05;;;;;;;5.33;3.30;;;5.70;31.60;;;;;;5039362;28;20205;-90
2022/04/03 14:21:32;;;;;;;3.43;3.03;;;5.40;33.00;;;;;;5036498;28;20218;-93
2022/04/03 14:24:00;;;;;;;3.77;3.37;;;5.50;33.70;;;;;;4999144;28;20223;-90
2022/04/03 14:26:28;;;;;;;3.50;3.17;;;5.10;33.10;;;;;;5030486;28;20223;-87
2022/04/03 14:29:03;;;;;;;4.43;3.43;;;5.10;35.10;;;;;;5027684;28;20210;-88
2022/04/03 14:40:28;;;;;;;4.07;3.47;;;4.80;34.90;;;;;;4948416;28;20197;-90
2022/04/03 14:42:56;;;;;;;3.83;3.30;;;4.70;34.70;;;;;;4983637;28;20233;-89
2022/04/03 14:45:24;;;;;;;3.43;3.13;;;4.80;35.20;;;;;;5025601;28;20245;-92
2022/04/03 14:53:48;;;;;;;3.50;3.20;;;4.90;35.40;;;;;;5039164;28;20207;-89
2022/04/03 14:56:20;;;;;;;4.50;3.40;;;4.80;37.00;;;;;;5037451;28;20693;-90
2022/04/03 14:58:47;;;;;;;3.60;3.17;;;4.50;34.70;;;;;;5048499;28;20203;-89
2022/04/03 15:01:15;;;;;;;5.00;3.47;;;4.60;34.90;;;;;;5037985;28;20272;-89
2022/04/03 15:03:42;;;;;;;3.37;3.07;;;4.80;34.70;;;;;;5049091;28;21539;-90
2022/04/03 15:08:54;;;;;;;6.53;3.23;;;4.80;33.90;;;;;;5030183;28;20253;-89
2022/04/03 15:11:22;;;;;;;3.63;3.10;;;4.90;33.70;;;;;;5037840;28;20296;-89
2022/04/03 15:13:58;;;;;;;3.80;3.40;;;4.90;34.60;;;;;;5053236;28;20226;-90
2022/04/03 15:16:25;;;;;;;5.13;3.37;;;4.90;34.50;;;;;;5053957;28;20249;-90
2022/04/03 15:18:53;;;;;;;3.87;3.43;;;4.90;35.00;;;;;;5050740;28;20210;-90
2022/04/03 15:24:02;;;;;;;4.33;3.23;;;4.70;36.30;;;;;;5033975;28;20255;-90
2022/04/03 15:26:30;;;;;;;3.47;3.07;;;4.70;34.90;;;;;;5041497;28;20217;-89
2022/04/03 15:28:57;;;;;;;6.17;3.77;;;4.80;35.00;;;;;;5053629;28;20264;-90
2022/04/03 15:31:25;;;;;;;4.43;3.50;;;4.70;33.70;;;;;;5052967;28;20289;-90
2022/04/03 15:33:52;;;;;;;4.40;3.17;;;4.40;33.70;;;;;;5049511;28;21860;-90
2022/04/03 15:41:48;;;;;;;3.17;2.87;;;4.30;35.80;;;;;;5046183;28;20198;-91
2022/04/03 15:50:52;;;;;;;6.50;3.60;;;3.80;40.70;;;;;;5032336;28;20199;-93
2022/04/03 15:56:28;;;;;;;4.47;3.47;;;3.80;43.30;;;;;;5066343;28;20284;-91
2022/04/03 15:59:05;;;;;;;5.57;3.60;;;3.80;43.30;;;;;;5066305;28;20289;-92
2022/04/03 16:01:39;;;;;;;8.90;4.60;;;3.90;42.30;;;;;;5058692;28;20687;-92
2022/04/03 16:04:12;;;;;;;4.03;3.07;;;4.00;43.10;;;;;;5067044;28;20233;-93
2022/04/03 16:12:39;;;;;;;4.30;3.50;;;3.80;40.90;;;;;;5068472;28;20212;-92
2022/04/03 16:17:54;;;;;;;3.80;3.50;;;3.50;42.80;;;;;;5046037;28;20206;-93
2022/04/03 16:20:42;;;;;;;3.93;3.30;;;3.40;43.00;;;;;;5037195;28;20206;-92
2022/04/03 16:31:26;;;;;;;4.73;3.63;;;3.40;43.00;;;;;;5051421;28;20214;-94
2022/04/03 16:57:11;;;;;;;4.53;2.93;;;2.90;38.60;;;;;;5039411;28;20228;-89
2022/04/03 17:00:12;;;;;;;3.90;3.00;;;2.90;40.60;;;;;;5069091;28;20229;-89
2022/04/03 17:02:45;;;;;;;4.37;3.40;;;2.80;42.20;;;;;;5071070;28;20217;-89
2022/04/03 17:05:32;;;;;;;4.90;3.50;;;2.70;42.40;;;;;;5068555;28;20222;-89
2022/04/03 17:07:59;;;;;;;4.13;3.40;;;2.70;42.40;;;;;;5070840;28;20237;-87
2022/04/03 17:10:27;;;;;;;5.53;3.73;;;2.60;42.30;;;;;;5066738;28;20202;-87
2022/04/03 17:12:55;;;;;;;3.50;3.20;;;2.50;42.30;;;;;;5059382;28;20218;-88
2022/04/03 17:15:26;;;;;;;4.40;3.50;;;2.70;44.30;;;;;;5046809;28;20232;-86
2022/04/03 17:17:54;;;;;;;4.43;3.33;;;2.70;44.80;;;;;;5062527;28;20208;-90
2022/04/03 17:20:22;;;;;;;5.03;3.10;;;2.70;44.70;;;;;;5065195;28;20276;-88
2022/04/03 17:22:49;;;;;;;3.77;3.20;;;2.60;42.30;;;;;;5062602;28;20730;-91
2022/04/03 17:25:19;;;;;;;6.57;4.00;;;2.60;42.30;;;;;;5065879;28;20277;-88
2022/04/03 17:27:47;;;;;;;5.23;3.60;;;2.50;45.70;;;;;;5061186;28;20217;-89
2022/04/03 17:30:15;;;;;;;6.80;3.40;;;2.50;47.50;;;;;;5061721;28;20248;-89
2022/04/03 17:32:42;;;;;;;4.43;4.00;;;2.60;48.10;;;;;;5062377;28;20638;-89
2022/04/03 17:35:14;;;;;;;6.27;3.57;;;2.50;48.60;;;;;;5066122;28;20222;-90
2022/04/03 17:37:44;;;;;;;3.37;2.90;;;2.50;49.00;;;;;;5072338;28;20213;-89
2022/04/03 17:40:13;;;;;;;5.10;3.43;;;2.50;47.60;;;;;;5069420;28;20205;-89
2022/04/03 17:42:45;;;;;;;4.67;3.63;;;2.40;48.80;;;;;;5060685;28;20209;-89
2022/04/03 17:45:12;;;;;;;4.27;3.40;;;2.40;49.30;;;;;;5060867;28;20259;-89
2022/04/03 17:47:40;;;;;;;5.53;3.23;;;2.40;50.70;;;;;;5066708;28;20221;-89
2022/04/03 17:52:50;;;;;;;3.67;3.27;;;2.30;50.30;;;;;;5068989;28;20235;-91
2022/04/03 17:55:20;;;;;;;4.13;3.23;;;2.30;50.40;;;;;;5064044;28;20284;-90
2022/04/03 17:57:54;;;;;;;4.20;3.80;;;2.00;49.90;;;;;;5056065;28;20216;-89
2022/04/03 18:00:23;;;;;;;4.10;3.30;;;2.00;51.10;;;;;;5044243;28;20218;-90
2022/04/03 18:02:51;;;;;;;3.77;3.20;;;2.00;53.00;;;;;;5064598;28;20267;-89
2022/04/03 18:05:18;;;;;;;4.40;3.23;;;2.00;51.70;;;;;;5061566;28;20730;-89
2022/04/03 18:07:46;;;;;;;4.20;3.33;;;2.00;50.80;;;;;;5058230;28;20229;-89
2022/04/03 18:10:25;;;;;;;5.00;3.27;;;1.90;47.90;;;;;;5062192;28;20624;-88
2022/04/03 18:12:53;;;;;;;4.57;3.00;;;1.90;46.70;;;;;;5058210;28;20225;-89
2022/04/03 18:15:22;;;;;;;4.50;3.00;;;1.90;46.70;;;;;;5060865;28;20225;-88
2022/04/03 18:17:57;;;;;;;5.97;3.07;;;1.90;46.20;;;;;;5059166;28;20226;-89
2022/04/03 18:20:38;;;;;;;5.67;3.20;;;1.90;46.60;;;;;;5041987;28;20209;-89
2022/04/03 18:23:10;;;;;;;4.57;3.10;;;1.90;47.20;;;;;;5060707;28;20198;-88
2022/04/03 18:25:44;;;;;;;4.30;3.10;;;1.90;48.30;;;;;;5063425;28;20212;-89
2022/04/03 18:28:36;;;;;;;4.27;3.40;;;1.90;49.60;;;;;;5061069;28;20237;-89
2022/04/03 18:31:05;;;;;;;5.10;3.30;;;1.90;48.40;;;;;;5058607;28;20623;-88
2022/04/03 18:33:34;;;;;;;3.70;3.20;;;1.90;49.80;;;;;;5061147;28;20641;-89
2022/04/03 18:36:03;;;;;;;4.60;3.10;;;1.90;49.40;;;;;;5043574;28;20746;-90
2022/04/03 18:38:32;;;;;;;4.03;3.50;;;1.80;50.50;;;;;;5061840;28;20222;-89
2022/04/03 18:41:01;;;;;;;6.20;3.60;;;1.80;50.40;;;;;;5053363;28;20229;-88
2022/04/03 18:43:28;;;;;;;4.07;3.00;;;1.80;51.50;;;;;;5062433;28;20202;-88
2022/04/03 18:45:56;;;;;;;8.23;3.40;;;1.70;51.20;;;;;;5062046;28;20584;-89
2022/04/03 18:48:23;;;;;;;4.13;2.97;;;1.80;51.40;;;;;;5060478;28;20201;-88
2022/04/03 18:50:51;;;;;;;3.40;3.10;;;1.80;49.10;;;;;;5051535;28;20229;-90
2022/04/03 18:53:20;;;;;;;3.63;3.13;;;1.80;50.10;;;;;;5042101;28;20213;-87
2022/04/03 18:55:48;;;;;;;3.43;2.90;;;1.80;46.10;;;;;;5059419;28;20257;-88
2022/04/03 18:58:18;;;;;;;4.37;3.10;;;1.90;48.30;;;;;;5045004;28;20202;-88
2022/04/03 19:00:45;;;;;;;4.37;2.97;;;1.90;49.20;;;;;;5061516;28;20230;-91
2022/04/03 19:03:13;;;;;;;4.00;3.13;;;1.90;44.20;;;;;;5059603;28;20207;-88
2022/04/03 19:05:41;;;;;;;3.57;3.13;;;1.80;44.20;;;;;;5060448;28;20611;-89
2022/04/03 19:08:09;;;;;;;5.57;3.30;;;1.80;45.50;;;;;;5057246;28;20194;-89
2022/04/03 19:10:38;;;;;;;4.83;3.10;;;1.70;46.90;;;;;;5059402;28;20424;-89
2022/04/03 19:13:06;;;;;;;4.67;3.30;;;1.80;46.00;;;;;;5052167;28;20708;-88
2022/04/03 19:15:35;;;;;;;4.03;2.80;;;1.80;44.00;;;;;;5061725;28;20186;-89
2022/04/03 19:18:06;;;;;;;3.57;3.00;;;1.80;45.40;;;;;;5064282;28;20202;-90
2022/04/03 19:20:33;;;;;;;3.70;3.13;;;1.80;45.10;;;;;;5032228;28;20198;-89
2022/04/03 19:23:00;;;;;;;4.43;3.03;;;1.80;41.70;;;;;;5054108;28;20231;-90
2022/04/03 19:25:27;;;;;;;5.60;3.00;;;1.80;44.90;;;;;;5068165;28;20218;-88
2022/04/03 19:27:55;;;;;;;3.53;2.97;;;1.80;43.00;;;;;;5062363;28;20344;-88
2022/04/03 19:30:24;;;;;;;4.07;3.00;;;1.90;44.60;;;;;;5062850;28;20747;-90
2022/04/03 19:35:43;;;;;;;3.23;2.93;;;1.80;43.80;;;;;;5063671;28;20241;-89
2022/04/03 19:41:58;;;;;;;6.73;3.20;;;1.70;43.80;;;;;;5050209;28;20291;-89
2022/04/03 19:44:33;;;;;;;3.77;2.97;;;1.70;45.70;;;;;;5066505;28;20190;-91
2022/04/03 19:54:11;;;;;;;4.03;2.80;;;1.60;45.50;;;;;;5058909;28;20216;-90
2022/04/03 19:56:39;;;;;;;4.53;3.23;;;1.60;44.80;;;;;;5070920;28;20263;-89
2022/04/03 20:01:55;;;;;;;5.43;3.40;;;1.50;44.50;;;;;;5057635;28;20263;-92
2022/04/03 20:04:58;;;;;;;4.67;3.33;;;1.40;47.50;;;;;;5068563;28;20201;-90
2022/04/03 20:08:12;;;;;;;5.20;3.30;;;1.50;45.60;;;;;;5069990;28;20204;-89
2022/04/03 20:22:35;;;;;;;4.10;3.13;;;1.50;45.50;;;;;;5002990;28;20198;-91
2022/04/03 20:28:26;;;;;;;4.17;3.27;;;1.60;47.80;;;;;;5034060;28;20226;-91
2022/04/03 20:31:57;;;;;;;4.53;3.03;;;1.50;46.60;;;;;;5007607;28;20283;-89
2022/04/03 20:37:47;;;;;;;3.67;3.00;;;1.60;45.30;;;;;;5033669;28;20281;-89
2022/04/03 20:40:34;;;;;;;3.73;3.30;;;1.60;43.30;;;;;;5072212;28;20193;-91
2022/04/03 20:43:02;;;;;;;4.10;3.30;;;1.70;44.50;;;;;;5070825;28;20205;-90
2022/04/03 20:51:43;;;;;;;3.77;3.43;;;1.50;45.50;;;;;;5069230;28;20221;-89
2022/04/03 20:54:11;;;;;;;5.47;3.40;;;1.50;47.50;;;;;;5069102;28;20209;-89
2022/04/03 20:56:38;;;;;;;3.93;3.53;;;1.50;47.90;;;;;;5067137;28;20237;-90
2022/04/03 21:01:49;;;;;;;5.10;3.30;;;1.60;48.20;;;;;;5060619;28;20217;-92
2022/04/03 21:04:18;;;;;;;4.13;3.30;;;1.60;48.00;;;;;;5067776;28;20189;-89
2022/04/03 21:06:57;;;;;;;3.90;3.50;;;1.70;48.30;;;;;;5051731;28;20233;-91
2022/04/03 21:09:24;;;;;;;4.37;3.60;;;1.70;47.40;;;;;;5052040;28;20261;-90
2022/04/03 21:11:55;;;;;;;5.10;3.53;;;1.70;46.30;;;;;;5068599;28;20313;-91
2022/04/03 21:14:25;;;;;;;4.17;3.70;;;1.60;46.30;;;;;;5061591;28;20191;-91
2022/04/03 21:16:52;;;;;;;4.57;3.20;;;1.70;46.60;;;;;;5053101;28;20293;-89
2022/04/03 21:19:21;;;;;;;6.40;3.80;;;1.70;46.60;;;;;;5062416;28;20212;-89
2022/04/03 21:21:49;;;;;;;4.83;3.60;;;1.60;46.10;;;;;;5067315;28;20245;-90
2022/04/03 21:27:06;;;;;;;4.10;3.70;;;1.70;45.90;;;;;;5049454;28;20728;-91
2022/04/03 21:29:34;;;;;;;4.00;3.50;;;1.80;46.10;;;;;;5062190;28;20288;-91
2022/04/03 21:32:01;;;;;;;4.97;4.10;;;1.60;43.70;;;;;;5063819;28;20246;-90
2022/04/03 21:34:33;;;;;;;3.93;3.40;;;1.50;46.30;;;;;;5059849;28;20213;-90
2022/04/03 21:37:01;;;;;;;3.80;3.40;;;1.50;45.30;;;;;;5059700;28;20228;-91
2022/04/03 21:39:29;;;;;;;4.20;3.43;;;1.40;45.90;;;;;;5065903;28;20261;-92